createdAt,value
2023-09-23T00:01:27.189Z,10.69
2023-09-23T00:03:54.039Z,10.68
2023-09-23T00:06:23.906Z,10.75
2023-09-23T00:08:50.730Z,10.66
2023-09-23T00:11:17.740Z,10.58
2023-09-23T00:13:44.423Z,10.66
2023-09-23T00:16:15.838Z,10.69
2023-09-23T00:18:46.390Z,10.70
2023-09-23T00:21:14.044Z,10.71
2023-09-23T00:23:41.238Z,10.75
2023-09-23T00:26:08.557Z,10.83
2023-09-23T00:28:35.533Z,10.81
2023-09-23T00:31:15.714Z,10.74
2023-09-23T00:33:43.455Z,10.78
2023-09-23T00:36:10.378Z,10.86
2023-09-23T00:38:37.842Z,10.86
2023-09-23T00:41:09.166Z,10.93
2023-09-23T00:43:36.981Z,10.87
2023-09-23T00:46:07.440Z,10.86
2023-09-23T00:48:39.234Z,10.83
2023-09-23T00:51:07.613Z,10.89
2023-09-23T00:53:36.390Z,10.83
2023-09-23T00:56:07.052Z,10.86
2023-09-23T00:58:33.648Z,10.81
2023-09-23T01:01:00.153Z,10.79
2023-09-23T01:03:28.490Z,10.93
2023-09-23T01:06:05.551Z,10.91
2023-09-23T01:08:32.307Z,10.96
2023-09-23T01:10:58.815Z,10.91
2023-09-23T01:13:26.016Z,10.80
2023-09-23T01:15:52.941Z,10.85
2023-09-23T01:18:21.685Z,10.74
2023-09-23T01:20:51.010Z,10.76
2023-09-23T01:23:19.020Z,10.68
2023-09-23T01:25:45.647Z,10.75
2023-09-23T01:28:12.827Z,10.75
2023-09-23T01:30:41.667Z,10.72
2023-09-23T01:33:08.938Z,10.66
2023-09-23T01:35:36.190Z,10.62
2023-09-23T01:38:07.594Z,10.60
2023-09-23T01:40:36.124Z,10.59
2023-09-23T01:43:03.291Z,10.61
2023-09-23T01:45:31.433Z,10.70
2023-09-23T01:47:58.282Z,10.62
2023-09-23T01:50:26.347Z,10.64
2023-09-23T01:52:53.212Z,10.48
2023-09-23T01:55:20.105Z,10.50
2023-09-23T01:57:49.194Z,10.39
2023-09-23T02:00:19.353Z,10.19
2023-09-23T02:02:46.546Z,10.07
2023-09-23T02:05:13.467Z,10.04
2023-09-23T02:07:42.342Z,10.12
2023-09-23T02:10:16.006Z,10.07
2023-09-23T02:12:43.588Z,10.12
2023-09-23T02:15:16.695Z,10.25
2023-09-23T02:17:44.938Z,10.11
2023-09-23T02:20:13.999Z,10.05
2023-09-23T02:22:42.986Z,9.95
2023-09-23T02:25:13.177Z,9.86
2023-09-23T02:27:40.876Z,9.75
2023-09-23T02:30:10.527Z,9.63
2023-09-23T02:32:42.397Z,9.61
2023-09-23T02:35:12.909Z,9.59
2023-09-23T02:37:40.868Z,9.56
2023-09-23T02:40:12.570Z,9.41
2023-09-23T02:42:43.801Z,9.38
2023-09-23T02:45:12.103Z,9.31
2023-09-23T02:47:39.888Z,9.30
2023-09-23T02:50:11.219Z,9.50
2023-09-23T02:52:40.158Z,9.56
2023-09-23T02:55:15.710Z,9.63
2023-09-23T02:57:48.066Z,9.70
2023-09-23T03:00:18.079Z,9.74
2023-09-23T03:02:56.557Z,9.68
2023-09-23T03:05:32.182Z,9.57
2023-09-23T03:08:01.018Z,9.50
2023-09-23T03:10:40.843Z,9.38
2023-09-23T03:13:08.770Z,9.25
2023-09-23T03:15:51.678Z,9.08
2023-09-23T03:18:38.604Z,9.08
2023-09-23T03:21:16.291Z,8.98
2023-09-23T03:23:42.926Z,9.09
2023-09-23T03:26:11.028Z,9.16
2023-09-23T03:28:38.195Z,9.03
2023-09-23T03:31:04.925Z,8.96
2023-09-23T03:33:33.551Z,9.10
2023-09-23T03:36:00.087Z,9.21
2023-09-23T03:38:27.572Z,9.25
2023-09-23T03:41:00.885Z,9.29
2023-09-23T03:43:30.339Z,9.20
2023-09-23T03:45:57.235Z,9.25
2023-09-23T03:48:23.884Z,9.35
2023-09-23T03:50:54.996Z,9.39
2023-09-23T03:53:25.718Z,9.34
2023-09-23T03:55:56.189Z,9.37
2023-09-23T03:58:23.653Z,9.39
2023-09-23T04:00:50.524Z,9.39
2023-09-23T04:03:19.214Z,9.40
2023-09-23T04:05:54.742Z,9.42
2023-09-23T04:08:21.397Z,9.34
2023-09-23T04:10:48.015Z,9.33
2023-09-23T04:13:15.769Z,9.44
2023-09-23T04:15:42.955Z,9.42
2023-09-23T04:18:10.459Z,9.35
2023-09-23T04:20:37.505Z,9.31
2023-09-23T04:23:04.583Z,9.23
2023-09-23T04:25:31.351Z,9.23
2023-09-23T04:27:57.954Z,9.16
2023-09-23T04:30:26.394Z,9.05
2023-09-23T04:32:53.031Z,9.09
2023-09-23T04:35:19.730Z,9.23
2023-09-23T04:37:46.319Z,9.11
2023-09-23T04:40:14.336Z,9.16
2023-09-23T04:42:44.574Z,9.14
2023-09-23T04:45:12.480Z,9.14
2023-09-23T04:47:39.682Z,9.26
2023-09-23T04:50:08.744Z,9.16
2023-09-23T04:52:36.213Z,9.18
2023-09-23T04:55:03.487Z,9.22
2023-09-23T04:57:30.312Z,9.14
2023-09-23T04:59:58.730Z,9.23
2023-09-23T05:02:27.289Z,9.13
2023-09-23T05:04:56.916Z,9.08
2023-09-23T05:07:27.037Z,8.98
2023-09-23T05:09:56.768Z,8.92
2023-09-23T05:12:24.878Z,8.87
2023-09-23T05:14:54.093Z,8.72
2023-09-23T05:17:23.000Z,8.76
2023-09-23T05:19:49.969Z,8.77
2023-09-23T05:22:17.725Z,8.74
2023-09-23T05:24:48.657Z,8.64
2023-09-23T05:27:15.968Z,8.61
2023-09-23T05:29:45.800Z,8.64
2023-09-23T05:32:13.280Z,8.67
2023-09-23T05:34:40.558Z,8.57
2023-09-23T05:37:13.173Z,8.55
2023-09-23T05:39:46.726Z,8.54
2023-09-23T05:42:15.079Z,8.45
2023-09-23T05:44:42.354Z,8.46
2023-09-23T05:47:10.273Z,8.43
2023-09-23T05:49:37.779Z,8.42
2023-09-23T05:52:04.461Z,8.46
2023-09-23T05:54:32.629Z,8.35
2023-09-23T05:56:59.137Z,8.27
2023-09-23T05:59:25.717Z,8.25
2023-09-23T06:01:52.343Z,8.14
2023-09-23T06:04:18.891Z,8.11
2023-09-23T06:06:45.422Z,8.15
2023-09-23T06:09:11.900Z,8.24
2023-09-23T06:11:38.986Z,8.36
2023-09-23T06:14:05.618Z,8.57
2023-09-23T06:16:32.191Z,8.70
2023-09-23T06:18:58.751Z,8.90
2023-09-23T06:21:25.254Z,9.07
2023-09-23T06:23:51.752Z,9.18
2023-09-23T06:26:20.717Z,9.12
2023-09-23T06:28:49.098Z,9.34
2023-09-23T06:31:16.053Z,9.61
2023-09-23T06:33:46.912Z,9.91
2023-09-23T06:36:28.730Z,10.06
2023-09-23T06:38:55.542Z,10.13
2023-09-23T06:41:28.025Z,10.17
2023-09-23T06:44:00.700Z,10.60
2023-09-23T06:46:32.407Z,10.40
2023-09-23T06:49:04.931Z,10.48
2023-09-23T06:51:44.343Z,10.56
2023-09-23T06:54:13.387Z,10.70
2023-09-23T07:03:17.117Z,11.15
2023-09-23T07:09:21.061Z,11.77
2023-09-23T07:11:47.882Z,12.12
2023-09-23T07:14:15.073Z,12.03
2023-09-23T07:33:30.626Z,11.94
2023-09-23T07:39:43.132Z,12.22
2023-09-23T07:43:15.585Z,12.24
2023-09-23T07:49:01.976Z,12.25
2023-09-23T07:51:39.116Z,12.75
2023-09-23T07:54:28.922Z,12.74
2023-09-23T07:57:03.087Z,12.99
2023-09-23T07:59:32.955Z,13.88
2023-09-23T08:02:03.049Z,14.54
2023-09-23T08:04:32.749Z,15.26
2023-09-23T08:06:59.699Z,14.40
2023-09-23T08:09:26.284Z,14.16
2023-09-23T08:11:52.905Z,14.13
2023-09-23T08:14:19.489Z,13.60
2023-09-23T08:16:46.016Z,13.95
2023-09-23T08:19:12.949Z,14.50
2023-09-23T08:21:39.643Z,14.25
2023-09-23T08:24:06.402Z,14.13
2023-09-23T08:26:32.996Z,14.26
2023-09-23T08:31:26.290Z,14.22
2023-09-23T08:33:52.829Z,14.28
2023-09-23T08:36:19.377Z,14.47
2023-09-23T08:38:47.073Z,14.85
2023-09-23T08:41:17.560Z,14.48
2023-09-23T08:43:45.137Z,14.65
2023-09-23T08:46:13.722Z,14.73
2023-09-23T08:48:41.628Z,14.57
2023-09-23T08:51:10.057Z,14.93
2023-09-23T08:53:39.970Z,14.83
2023-09-23T08:56:07.942Z,14.79
2023-09-23T08:58:34.716Z,14.84
2023-09-23T09:01:02.371Z,14.98
2023-09-23T09:03:30.369Z,15.00
2023-09-23T09:05:57.093Z,15.06
2023-09-23T09:08:24.046Z,14.89
2023-09-23T09:10:50.730Z,14.82
2023-09-23T09:13:18.575Z,14.88
2023-09-23T09:15:45.747Z,15.03
2023-09-23T09:18:12.375Z,15.22
2023-09-23T09:20:38.985Z,15.18
2023-09-23T09:23:05.555Z,14.98
2023-09-23T09:25:32.576Z,15.01
2023-09-23T09:27:59.374Z,15.26
2023-09-23T09:30:27.034Z,15.36
2023-09-23T09:33:00.163Z,15.52
2023-09-23T09:35:27.729Z,15.57
2023-09-23T09:38:07.354Z,15.73
2023-09-23T09:40:43.069Z,15.96
2023-09-23T09:43:10.652Z,16.31
2023-09-23T09:45:41.703Z,16.75
2023-09-23T09:48:09.692Z,16.94
2023-09-23T09:50:39.835Z,17.30
2023-09-23T09:53:09.932Z,16.79
2023-09-23T09:55:36.519Z,16.27
2023-09-23T09:58:03.353Z,16.53
2023-09-23T10:00:35.429Z,16.90
2023-09-23T10:03:07.736Z,17.08
2023-09-23T10:05:35.968Z,17.09
2023-09-23T10:08:16.969Z,17.02
2023-09-23T10:10:49.109Z,17.00
2023-09-23T10:13:21.071Z,16.23
2023-09-23T10:15:47.768Z,15.74
2023-09-23T10:18:17.851Z,15.63
2023-09-23T10:20:49.399Z,15.35
2023-09-23T10:23:24.724Z,14.93
2023-09-23T10:25:53.558Z,14.53
2023-09-23T10:28:21.655Z,14.19
2023-09-23T10:31:05.368Z,14.01
2023-09-23T10:33:36.626Z,14.45
2023-09-23T10:36:05.049Z,14.95
2023-09-23T10:38:36.157Z,15.09
2023-09-23T10:41:05.256Z,15.91
2023-09-23T10:43:32.619Z,15.84
2023-09-23T10:46:03.297Z,15.35
2023-09-23T10:48:31.147Z,15.94
2023-09-23T10:50:58.617Z,16.17
2023-09-23T10:53:31.066Z,16.63
2023-09-23T10:56:03.060Z,17.17
2023-09-23T10:58:33.061Z,17.61
2023-09-23T11:00:59.633Z,17.68
2023-09-23T11:03:26.537Z,17.78
2023-09-23T11:05:53.319Z,17.64
2023-09-23T11:08:19.954Z,17.35
2023-09-23T11:10:48.944Z,17.22
2023-09-23T11:13:16.972Z,16.32
2023-09-23T11:15:46.288Z,15.81
2023-09-23T11:18:15.746Z,15.48
2023-09-23T11:20:44.022Z,15.35
2023-09-23T11:23:11.440Z,15.25
2023-09-23T11:25:47.823Z,15.19
2023-09-23T11:28:22.724Z,15.14
2023-09-23T11:30:57.683Z,15.10
2023-09-23T11:33:26.848Z,15.38
2023-09-23T11:36:01.806Z,15.48
2023-09-23T11:38:28.708Z,15.77
2023-09-23T11:48:26.458Z,16.24
2023-09-23T11:51:34.102Z,16.75
2023-09-23T11:54:15.474Z,16.51
2023-09-23T11:56:45.539Z,16.24
2023-09-23T11:59:12.346Z,16.01
2023-09-23T12:01:39.131Z,16.07
2023-09-23T12:04:06.162Z,16.04
2023-09-23T12:06:37.751Z,16.62
2023-09-23T12:09:05.137Z,18.07
2023-09-23T12:11:31.779Z,17.60
2023-09-23T12:13:58.329Z,16.78
2023-09-23T12:16:25.023Z,16.24
2023-09-23T12:18:51.622Z,15.92
2023-09-23T12:21:23.362Z,15.91
2023-09-23T12:23:50.228Z,16.19
2023-09-23T12:26:16.853Z,16.24
2023-09-23T12:28:43.826Z,16.29
2023-09-23T12:31:11.305Z,16.50
2023-09-23T12:33:38.007Z,16.44
2023-09-23T12:36:04.733Z,16.06
2023-09-23T12:38:31.689Z,15.84
2023-09-23T12:40:58.421Z,15.72
2023-09-23T12:43:25.090Z,15.73
2023-09-23T12:45:54.754Z,15.56
2023-09-23T12:48:21.509Z,15.40
2023-09-23T12:50:49.165Z,15.32
2023-09-23T12:53:15.893Z,15.24
2023-09-23T12:55:42.443Z,15.25
2023-09-23T12:58:09.263Z,15.33
2023-09-23T13:00:38.758Z,15.87
2023-09-23T13:03:15.323Z,16.39
2023-09-23T13:06:19.638Z,18.77
2023-09-23T13:08:54.388Z,20.29
2023-09-23T13:11:24.127Z,20.11
2023-09-23T13:13:51.934Z,18.98
2023-09-23T13:16:18.872Z,18.40
2023-09-23T13:18:45.936Z,18.03
2023-09-23T13:21:13.120Z,17.43
2023-09-23T13:23:40.041Z,17.07
2023-09-23T13:26:07.905Z,16.73
2023-09-23T13:28:35.191Z,16.55
2023-09-23T13:31:02.005Z,16.46
2023-09-23T13:33:29.241Z,16.87
2023-09-23T13:35:55.916Z,17.14
2023-09-23T13:38:22.522Z,17.40
2023-09-23T13:40:49.199Z,17.09
2023-09-23T13:43:15.810Z,17.01
2023-09-23T13:45:42.385Z,16.70
2023-09-23T13:48:09.750Z,16.65
2023-09-23T13:50:37.776Z,16.58
2023-09-23T13:53:14.000Z,16.40
2023-09-23T13:55:43.518Z,16.58
2023-09-23T13:58:10.824Z,16.55
2023-09-23T14:00:38.427Z,16.41
2023-09-23T14:03:05.408Z,16.28
2023-09-23T14:05:32.002Z,16.27
2023-09-23T14:07:58.639Z,16.49
2023-09-23T14:10:26.324Z,16.57
2023-09-23T14:12:52.943Z,16.41
2023-09-23T14:15:19.639Z,16.28
2023-09-23T14:17:47.990Z,16.40
2023-09-23T14:20:15.399Z,16.56
2023-09-23T14:25:49.822Z,16.30
2023-09-23T14:28:18.951Z,16.13
2023-09-23T14:30:48.300Z,16.12
2023-09-23T14:33:14.993Z,15.90
2023-09-23T14:35:45.221Z,15.98
2023-09-23T14:41:36.424Z,15.84
2023-09-23T14:52:22.210Z,15.55
2023-09-23T14:55:08.134Z,15.42
2023-09-23T15:01:00.932Z,15.35
2023-09-23T15:03:27.661Z,15.30
2023-09-23T15:05:54.377Z,15.20
2023-09-23T15:08:20.992Z,15.10
2023-09-23T15:10:47.560Z,15.00
2023-09-23T15:13:14.064Z,14.96
2023-09-23T15:15:41.033Z,14.98
2023-09-23T15:18:07.636Z,15.01
2023-09-23T15:20:34.716Z,15.00
2023-09-23T15:24:03.857Z,15.03
2023-09-23T15:26:30.418Z,15.03
2023-09-23T15:28:57.005Z,14.99
2023-09-23T15:31:24.383Z,15.02
2023-09-23T15:33:50.962Z,15.07
2023-09-23T15:36:19.175Z,15.07
2023-09-23T15:38:46.038Z,15.16
2023-09-23T15:41:13.008Z,15.18
2023-09-23T15:43:40.333Z,15.18
2023-09-23T15:46:07.007Z,15.15
2023-09-23T15:48:34.833Z,15.11
2023-09-23T15:51:10.021Z,14.93
2023-09-23T15:53:39.983Z,14.75
2023-09-23T15:56:10.479Z,14.76
2023-09-23T15:58:41.436Z,14.70
2023-09-23T16:01:08.253Z,14.69
2023-09-23T16:03:35.613Z,14.66
2023-09-23T16:06:03.292Z,14.53
2023-09-23T16:08:29.981Z,14.41
2023-09-23T16:10:56.587Z,14.32
2023-09-23T16:13:23.289Z,14.13
2023-09-23T16:15:49.948Z,14.10
2023-09-23T16:18:18.044Z,14.19
2023-09-23T16:20:46.747Z,14.19
2023-09-23T16:23:13.256Z,14.02
2023-09-23T16:25:40.054Z,13.89
2023-09-23T16:28:07.442Z,13.90
2023-09-23T16:37:55.802Z,13.43
2023-09-23T16:40:22.790Z,13.23
2023-09-23T16:42:49.431Z,13.00
2023-09-23T16:45:16.220Z,12.92
2023-09-23T16:47:42.895Z,12.79
2023-09-23T16:50:09.981Z,12.69
2023-09-23T16:52:36.602Z,12.68
2023-09-23T16:55:03.279Z,12.64
2023-09-23T16:57:29.772Z,12.56
2023-09-23T16:59:56.300Z,12.47
2023-09-23T17:02:23.021Z,12.39
2023-09-23T17:04:50.069Z,12.36
2023-09-23T17:07:16.760Z,12.28
2023-09-23T17:09:44.140Z,12.19
2023-09-23T17:12:14.008Z,12.14
2023-09-23T17:14:40.900Z,12.05
2023-09-23T17:17:07.886Z,11.97
2023-09-23T17:19:34.920Z,11.92
2023-09-23T17:22:01.750Z,11.79
2023-09-23T17:24:30.354Z,11.73
2023-09-23T17:26:57.185Z,11.69
2023-09-23T17:29:23.761Z,11.55
2023-09-23T17:31:50.302Z,11.50
2023-09-23T17:34:17.101Z,11.40
2023-09-23T17:36:43.804Z,11.35
2023-09-23T17:39:11.841Z,11.28
2023-09-23T17:41:39.161Z,11.17
2023-09-23T17:44:06.830Z,11.11
2023-09-23T17:46:34.407Z,11.08
2023-09-23T17:49:01.117Z,11.01
2023-09-23T17:51:28.160Z,10.92
2023-09-23T17:53:54.915Z,10.79
2023-09-23T17:56:23.160Z,10.69
2023-09-23T17:58:50.226Z,10.59
2023-09-23T18:01:16.899Z,10.54
2023-09-23T18:03:43.543Z,10.46
2023-09-23T18:06:10.198Z,10.44
2023-09-23T18:08:36.810Z,10.29
2023-09-23T18:11:03.480Z,10.17
2023-09-23T18:13:29.999Z,10.17
2023-09-23T18:15:56.801Z,10.15
2023-09-23T18:18:25.718Z,10.32
2023-09-23T18:20:52.333Z,10.22
2023-09-23T18:23:18.965Z,10.04
2023-09-23T18:25:45.594Z,10.09
2023-09-23T18:28:12.171Z,9.95
2023-09-23T18:30:39.326Z,9.84
2023-09-23T18:33:07.242Z,9.83
2023-09-23T18:35:34.368Z,9.81
2023-09-23T18:38:01.013Z,9.63
2023-09-23T18:40:27.534Z,9.59
2023-09-23T18:42:56.924Z,9.50
2023-09-23T18:45:23.457Z,9.44
2023-09-23T18:47:57.556Z,9.28
2023-09-23T18:50:34.388Z,9.27
2023-09-23T18:53:01.377Z,9.21
2023-09-23T18:55:28.436Z,9.19
2023-09-23T18:58:03.017Z,9.12
2023-09-23T19:00:46.388Z,9.10
2023-09-23T19:03:13.336Z,9.05
2023-09-23T19:05:40.072Z,9.07
2023-09-23T19:08:07.129Z,9.09
2023-09-23T19:10:34.062Z,9.02
2023-09-23T19:13:01.097Z,8.95
2023-09-23T19:15:27.582Z,8.90
2023-09-23T19:17:55.177Z,8.83
2023-09-23T19:20:21.794Z,8.77
2023-09-23T19:22:48.813Z,8.78
2023-09-23T19:25:15.933Z,8.96
2023-09-23T19:27:43.974Z,9.00
2023-09-23T19:30:14.277Z,8.84
2023-09-23T19:32:41.740Z,8.62
2023-09-23T19:35:09.037Z,8.50
2023-09-23T19:37:37.323Z,8.63
2023-09-23T19:40:06.235Z,8.44
2023-09-23T19:42:34.164Z,8.39
2023-09-23T19:45:03.903Z,8.44
2023-09-23T19:47:32.450Z,8.51
2023-09-23T19:50:01.517Z,8.64
2023-09-23T19:52:30.618Z,8.59
2023-09-23T19:54:57.839Z,8.55
2023-09-23T19:57:26.386Z,8.51
2023-09-23T19:59:53.571Z,8.48
2023-09-23T20:02:20.449Z,8.35
2023-09-23T20:04:47.230Z,8.42
2023-09-23T20:07:14.100Z,8.55
2023-09-23T20:09:41.544Z,8.29
2023-09-23T20:12:08.635Z,8.18
2023-09-23T20:14:37.914Z,8.04
2023-09-23T20:17:05.432Z,7.96
2023-09-23T20:19:32.058Z,7.95
2023-09-23T20:21:58.622Z,7.97
2023-09-23T20:24:25.437Z,7.86
2023-09-23T20:26:54.153Z,7.72
2023-09-23T20:29:21.727Z,7.72
2023-09-23T20:31:49.826Z,7.73
2023-09-23T20:34:17.867Z,7.68
2023-09-23T20:36:45.479Z,7.70
2023-09-23T20:39:12.280Z,7.53
2023-09-23T20:41:38.895Z,7.55
2023-09-23T20:44:05.811Z,7.68
2023-09-23T20:46:33.098Z,7.70
2023-09-23T20:49:00.646Z,7.81
2023-09-23T20:51:27.343Z,7.94
2023-09-23T20:53:55.713Z,7.96
2023-09-23T20:56:22.502Z,7.65
2023-09-23T20:58:49.084Z,7.67
2023-09-23T21:01:15.656Z,7.67
2023-09-23T21:03:42.825Z,7.56
2023-09-23T21:06:09.940Z,7.43
2023-09-23T21:08:36.624Z,7.39
2023-09-23T21:11:03.249Z,7.34
2023-09-23T21:13:29.819Z,7.39
2023-09-23T21:16:00.738Z,7.52
2023-09-23T21:18:27.371Z,7.41
2023-09-23T21:20:53.967Z,7.30
2023-09-23T21:23:21.161Z,7.30
2023-09-23T21:25:50.929Z,7.24
2023-09-23T21:28:17.549Z,7.26
2023-09-23T21:30:44.094Z,7.20
2023-09-23T21:33:11.562Z,7.25
2023-09-23T21:35:41.748Z,7.33
2023-09-23T21:38:08.822Z,7.14
2023-09-23T21:40:42.644Z,6.98
2023-09-23T21:43:09.520Z,6.96
2023-09-23T21:45:39.483Z,6.97
2023-09-23T21:48:10.253Z,7.07
2023-09-23T21:50:37.240Z,7.15
2023-09-23T21:53:05.382Z,7.19
2023-09-23T21:55:31.899Z,7.17
2023-09-23T21:57:58.643Z,7.22
2023-09-23T22:00:29.288Z,7.30
2023-09-23T22:02:59.905Z,7.19
2023-09-23T22:05:28.475Z,7.17
2023-09-23T22:07:56.544Z,7.05
2023-09-23T22:10:23.845Z,6.93
2023-09-23T22:12:50.551Z,6.86
2023-09-23T22:15:18.185Z,6.81
2023-09-23T22:17:45.146Z,6.81
2023-09-23T22:20:12.234Z,6.83
2023-09-23T22:22:41.603Z,6.72
2023-09-23T22:25:24.131Z,6.59
2023-09-23T22:27:52.764Z,6.60
2023-09-23T22:30:25.175Z,6.81
2023-09-23T22:32:59.447Z,6.80
2023-09-23T22:35:30.582Z,6.73
2023-09-23T22:38:00.132Z,6.65
2023-09-23T22:40:27.165Z,6.56
2023-09-23T22:42:56.145Z,6.49
2023-09-23T22:45:36.208Z,6.54
2023-09-23T22:48:06.372Z,6.56
2023-09-23T22:50:33.230Z,6.50
2023-09-23T22:52:59.788Z,6.36
2023-09-23T22:55:26.388Z,6.22
2023-09-23T22:57:53.713Z,6.18
2023-09-23T23:00:26.932Z,6.23
2023-09-23T23:02:54.191Z,6.31
2023-09-23T23:05:21.120Z,6.25
2023-09-23T23:07:51.368Z,6.17
2023-09-23T23:10:18.456Z,6.16
2023-09-23T23:12:47.069Z,6.40
2023-09-23T23:15:16.217Z,6.45
2023-09-23T23:17:44.890Z,6.49
2023-09-23T23:20:25.986Z,6.54
2023-09-23T23:22:56.547Z,6.64
2023-09-23T23:25:24.817Z,6.47
2023-09-23T23:27:51.682Z,6.27
2023-09-23T23:30:19.109Z,6.25
2023-09-23T23:32:50.268Z,6.25
2023-09-23T23:35:23.412Z,6.17
2023-09-23T23:37:50.750Z,6.01
2023-09-23T23:40:21.220Z,5.98
2023-09-23T23:42:48.015Z,5.97
2023-09-23T23:45:14.753Z,5.90
2023-09-23T23:47:41.388Z,5.90
2023-09-23T23:50:08.559Z,5.90
2023-09-23T23:52:35.226Z,6.11
2023-09-23T23:55:03.461Z,6.23
2023-09-23T23:57:30.005Z,6.26
2023-09-23T23:59:56.772Z,6.39
